createdAt,value
2018-12-24T00:00:03.906Z,99.6
2018-12-24T00:01:03.553Z,100.3
2018-12-24T00:02:03.720Z,99.4
2018-12-24T00:03:03.166Z,98.7
2018-12-24T00:04:03.928Z,97.7
2018-12-24T00:05:03.695Z,98.4
2018-12-24T00:06:03.565Z,97.7
2018-12-24T00:07:03.079Z,97.7
2018-12-24T00:08:03.912Z,99.8
2018-12-24T00:09:03.379Z,98.2
2018-12-24T00:10:03.724Z,100.3
2018-12-24T00:11:04.104Z,99.8
2018-12-24T00:12:07.686Z,101
2018-12-24T00:13:03.666Z,100.1
2018-12-24T00:14:03.120Z,101
2018-12-24T00:15:03.688Z,101.5
2018-12-24T00:16:03.120Z,102.2
2018-12-24T00:17:03.588Z,101.2
2018-12-24T00:18:03.224Z,102.2
2018-12-24T00:19:03.696Z,101
2018-12-24T00:20:03.186Z,103.1
2018-12-24T00:21:04.133Z,102.2
2018-12-24T00:22:04.020Z,101.2
2018-12-24T00:23:03.662Z,102.6
2018-12-24T00:24:03.529Z,101.5
2018-12-24T00:25:03.051Z,100.8
2018-12-24T00:26:03.520Z,101.9
2018-12-24T00:27:02.834Z,101.2
2018-12-24T00:28:03.336Z,100.5
2018-12-24T00:29:03.714Z,101
2018-12-24T00:30:02.931Z,100.5
2018-12-24T00:31:03.711Z,99.6
2018-12-24T00:32:03.771Z,100.3
2018-12-24T00:33:03.516Z,101
2018-12-24T00:34:03.866Z,98.7
2018-12-24T00:35:03.171Z,98.7
2018-12-24T00:36:03.529Z,98.4
2018-12-24T00:37:03.105Z,97.5
2018-12-24T00:38:03.197Z,99.4
2018-12-24T00:39:03.330Z,98.9
2018-12-24T00:40:03.309Z,100.1
2018-12-24T00:41:03.593Z,99.8
2018-12-24T00:42:03.456Z,98.7
2018-12-24T00:43:03.388Z,98.4
2018-12-24T00:44:03.462Z,97.5
2018-12-24T00:45:02.943Z,97.3
2018-12-24T00:46:03.556Z,95.4
2018-12-24T00:47:03.867Z,95.4
2018-12-24T00:48:03.576Z,95.4
2018-12-24T00:49:03.300Z,94.2
2018-12-24T00:50:03.657Z,93.8
2018-12-24T00:51:03.858Z,96.8
2018-12-24T00:52:03.472Z,94
2018-12-24T00:53:03.818Z,95.9
2018-12-24T00:54:03.446Z,96.3
2018-12-24T00:55:03.706Z,95.6
2018-12-24T00:56:03.550Z,96.1
2018-12-24T00:57:03.020Z,97.3
2018-12-24T00:58:06.473Z,98.2
2018-12-24T00:59:03.735Z,97.5
2018-12-24T01:00:03.186Z,98.2
2018-12-24T01:01:03.313Z,97.3
2018-12-24T01:02:03.167Z,99.1
2018-12-24T01:03:03.316Z,98.7
2018-12-24T01:04:02.798Z,101
2018-12-24T01:05:03.327Z,99.4
2018-12-24T01:06:03.518Z,98.9
2018-12-24T01:07:03.275Z,99.6
2018-12-24T01:08:03.779Z,99.4
2018-12-24T01:09:03.079Z,98.7
2018-12-24T01:10:03.351Z,99.6
2018-12-24T01:11:03.699Z,100.1
2018-12-24T01:12:03.152Z,97.3
2018-12-24T01:13:03.128Z,98.4
2018-12-24T01:14:03.194Z,99.1
2018-12-24T01:15:03.870Z,99.6
2018-12-24T01:16:03.170Z,99.4
2018-12-24T01:17:03.890Z,98.2
2018-12-24T01:18:03.127Z,97.3
2018-12-24T01:19:03.662Z,96.6
2018-12-24T01:20:03.222Z,96.3
2018-12-24T01:21:02.896Z,95.9
2018-12-24T01:22:03.510Z,95.9
2018-12-24T01:23:03.806Z,98.2
2018-12-24T01:24:03.390Z,95.2
2018-12-24T01:25:03.170Z,97.3
2018-12-24T01:26:03.216Z,96.1
2018-12-24T01:27:02.782Z,96.1
2018-12-24T01:28:03.419Z,97.3
2018-12-24T01:29:03.837Z,96.8
2018-12-24T01:30:03.522Z,99.6
2018-12-24T01:31:03.331Z,97.3
2018-12-24T01:32:03.439Z,97.5
2018-12-24T01:33:03.819Z,99.8
2018-12-24T01:34:03.532Z,98.7
2018-12-24T01:35:03.878Z,100.8
2018-12-24T01:36:03.370Z,100.5
2018-12-24T01:37:03.818Z,100.5
2018-12-24T01:38:03.667Z,100.3
2018-12-24T01:39:03.600Z,99.4
2018-12-24T01:40:03.550Z,99.6
2018-12-24T01:41:03.804Z,98.4
2018-12-24T01:42:02.826Z,101
2018-12-24T01:43:03.103Z,99.6
2018-12-24T01:44:03.702Z,100.3
2018-12-24T01:45:03.310Z,100.1
2018-12-24T01:46:02.903Z,101.7
2018-12-24T01:47:03.932Z,101.7
2018-12-24T01:48:03.538Z,102.6
2018-12-24T01:49:03.103Z,101.9
2018-12-24T01:50:03.960Z,101.9
2018-12-24T01:51:03.208Z,102.9
2018-12-24T01:52:03.161Z,101.9
2018-12-24T01:53:03.100Z,101.9
2018-12-24T01:54:03.102Z,101.9
2018-12-24T01:55:03.843Z,101.2
2018-12-24T01:56:03.242Z,101
2018-12-24T01:57:03.798Z,99.4
2018-12-24T01:58:03.012Z,100.3
2018-12-24T01:59:03.555Z,98.4
2018-12-24T02:00:03.534Z,99.1
2018-12-24T02:01:03.675Z,97.7
2018-12-24T02:02:03.186Z,98
2018-12-24T02:03:03.384Z,97.7
2018-12-24T02:04:03.812Z,98
2018-12-24T02:05:03.662Z,97.5
2018-12-24T02:06:03.065Z,97.3
2018-12-24T02:07:03.830Z,97
2018-12-24T02:08:03.228Z,97.3
2018-12-24T02:09:03.647Z,94.9
2018-12-24T02:10:03.358Z,97
2018-12-24T02:11:03.651Z,97
2018-12-24T02:12:03.602Z,96.8
2018-12-24T02:13:03.267Z,98
2018-12-24T02:14:03.732Z,96.3
2018-12-24T02:15:03.114Z,97.5
2018-12-24T02:16:03.712Z,96.1
2018-12-24T02:17:03.369Z,95.9
2018-12-24T02:18:03.619Z,96.1
2018-12-24T02:19:03.361Z,96.8
2018-12-24T02:20:03.695Z,97
2018-12-24T02:21:02.997Z,97.7
2018-12-24T02:22:13.334Z,97.5
2018-12-24T02:23:03.297Z,98.4
2018-12-24T02:24:03.697Z,97.5
2018-12-24T02:25:03.249Z,97.5
2018-12-24T02:26:09.088Z,96.3
2018-12-24T02:27:03.558Z,97.3
2018-12-24T02:28:03.591Z,97.5
2018-12-24T02:29:03.583Z,96.3
2018-12-24T02:30:03.006Z,98.2
2018-12-24T02:31:03.419Z,96.8
2018-12-24T02:32:03.873Z,97.5
2018-12-24T02:33:03.106Z,98
2018-12-24T02:34:03.383Z,99.1
2018-12-24T02:35:03.021Z,99.8
2018-12-24T02:36:03.428Z,100.1
2018-12-24T02:37:02.861Z,101.5
2018-12-24T02:38:03.076Z,100.5
2018-12-24T02:39:03.698Z,101.9
2018-12-24T02:40:03.246Z,101.9
2018-12-24T02:41:03.351Z,100.5
2018-12-24T02:42:02.944Z,102.4
2018-12-24T02:43:03.798Z,101
2018-12-24T02:44:03.055Z,100.1
2018-12-24T02:45:03.665Z,101.9
2018-12-24T02:46:03.101Z,101
2018-12-24T02:47:03.178Z,101.5
2018-12-24T02:48:02.887Z,100.1
2018-12-24T02:49:03.283Z,99.1
2018-12-24T02:50:03.590Z,98
2018-12-24T02:51:03.622Z,97.7
2018-12-24T02:52:03.365Z,96.3
2018-12-24T02:53:03.478Z,98.2
2018-12-24T02:54:03.316Z,97
2018-12-24T02:55:03.713Z,97.5
2018-12-24T02:56:03.193Z,98.4
2018-12-24T02:57:03.886Z,98.7
2018-12-24T02:58:03.101Z,99.6
2018-12-24T02:59:03.315Z,99.8
2018-12-24T03:00:03.089Z,98.9
2018-12-24T03:01:04.160Z,98.9
2018-12-24T03:02:03.306Z,98.2
2018-12-24T03:03:03.744Z,99.4
2018-12-24T03:04:03.470Z,98.4
2018-12-24T03:05:03.833Z,99.1
2018-12-24T03:06:03.437Z,97.7
2018-12-24T03:07:02.993Z,100.5
2018-12-24T03:08:03.082Z,99.4
2018-12-24T03:09:03.842Z,99.4
2018-12-24T03:10:03.046Z,99.6
2018-12-24T03:11:03.758Z,98.2
2018-12-24T03:12:03.247Z,100.3
2018-12-24T03:13:03.560Z,99.8
2018-12-24T03:14:03.149Z,96.8
2018-12-24T03:15:03.962Z,99.6
2018-12-24T03:16:03.539Z,98
2018-12-24T03:17:03.138Z,99.4
2018-12-24T03:18:02.905Z,98.2
2018-12-24T03:19:06.600Z,101.2
2018-12-24T03:20:03.533Z,100.3
2018-12-24T03:21:03.137Z,100.1
2018-12-24T03:22:03.475Z,99.6
2018-12-24T03:23:03.729Z,100.1
2018-12-24T03:24:03.299Z,98.9
2018-12-24T03:25:03.853Z,98.9
2018-12-24T03:26:03.326Z,98.4
2018-12-24T03:27:03.401Z,97.3
2018-12-24T03:28:03.154Z,98.2
2018-12-24T03:29:03.512Z,95.6
2018-12-24T03:30:03.045Z,96.6
2018-12-24T03:31:03.729Z,94.9
2018-12-24T03:32:03.115Z,95.6
2018-12-24T03:33:03.101Z,94
2018-12-24T03:34:02.974Z,94.7
2018-12-24T03:35:03.415Z,91.7
2018-12-24T03:36:03.250Z,91.2
2018-12-24T03:37:04.131Z,89.8
2018-12-24T03:38:03.384Z,89.6
2018-12-24T03:39:03.284Z,88.9
2018-12-24T03:40:03.098Z,89.8
2018-12-24T03:41:02.838Z,90.3
2018-12-24T03:42:03.228Z,89.1
2018-12-24T03:43:13.415Z,89.3
2018-12-24T03:44:02.937Z,89.1
2018-12-24T03:45:03.866Z,90.7
2018-12-24T03:46:03.980Z,90.5
2018-12-24T03:47:03.071Z,91.2
2018-12-24T03:48:03.475Z,92.6
2018-12-24T03:49:03.363Z,91.9
2018-12-24T03:50:03.680Z,93.5
2018-12-24T03:51:03.030Z,93.3
2018-12-24T03:52:02.954Z,93.1
2018-12-24T03:53:03.583Z,94.5
2018-12-24T03:54:03.819Z,94.9
2018-12-24T03:55:03.963Z,93.3
2018-12-24T03:56:03.530Z,95.2
2018-12-24T03:57:03.768Z,93.1
2018-12-24T03:58:03.327Z,94
2018-12-24T03:59:03.145Z,96.6
2018-12-24T04:00:02.906Z,94
2018-12-24T04:01:02.955Z,94.7
2018-12-24T04:02:03.616Z,95.4
2018-12-24T04:03:03.462Z,98
2018-12-24T04:04:03.480Z,97.5
2018-12-24T04:05:03.586Z,98
2018-12-24T04:06:03.406Z,97.3
2018-12-24T04:07:03.190Z,97
2018-12-24T04:08:03.289Z,97.3
2018-12-24T04:09:03.370Z,97
2018-12-24T04:10:03.372Z,95.6
2018-12-24T04:11:03.823Z,95.6
2018-12-24T04:12:02.939Z,97.5
2018-12-24T04:13:03.487Z,95.2
2018-12-24T04:14:03.610Z,97.3
2018-12-24T04:15:03.312Z,97
2018-12-24T04:16:02.938Z,96.3
2018-12-24T04:17:03.744Z,97.5
2018-12-24T04:18:03.756Z,96.3
2018-12-24T04:19:03.781Z,98.7
2018-12-24T04:20:03.184Z,98
2018-12-24T04:21:03.309Z,94.9
2018-12-24T04:22:03.172Z,97.7
2018-12-24T04:23:03.874Z,97.7
2018-12-24T04:24:03.575Z,99.6
2018-12-24T04:25:03.366Z,100.3
2018-12-24T04:26:03.904Z,101.7
2018-12-24T04:27:02.926Z,101.7
2018-12-24T04:28:03.254Z,102.4
2018-12-24T04:29:03.822Z,102.9
2018-12-24T04:30:03.128Z,102.9
2018-12-24T04:31:02.945Z,103.8
2018-12-24T04:32:03.670Z,103.8
2018-12-24T04:33:03.499Z,103.1
2018-12-24T04:34:03.317Z,105.4
2018-12-24T04:35:02.964Z,103.3
2018-12-24T04:36:03.827Z,105.2
2018-12-24T04:37:02.875Z,106.6
2018-12-24T04:38:03.611Z,106.1
2018-12-24T04:39:03.352Z,105.7
2018-12-24T04:40:03.586Z,107.1
2018-12-24T04:41:03.130Z,106.4
2018-12-24T04:42:03.635Z,106.8
2018-12-24T04:43:03.044Z,105.4
2018-12-24T04:44:03.337Z,105.9
2018-12-24T04:45:03.858Z,105.2
2018-12-24T04:46:03.363Z,104.3
2018-12-24T04:47:03.757Z,102.9
2018-12-24T04:48:02.910Z,102.9
2018-12-24T04:49:03.231Z,103.6
2018-12-24T04:50:03.407Z,101.9
2018-12-24T04:51:03.826Z,103.8
2018-12-24T04:52:03.568Z,101.9
2018-12-24T04:53:03.708Z,101.7
2018-12-24T04:54:03.279Z,101.5
2018-12-24T04:55:03.708Z,99.8
2018-12-24T04:56:03.344Z,100.1
2018-12-24T04:57:03.321Z,99.1
2018-12-24T04:58:03.042Z,100.1
2018-12-24T04:59:03.494Z,100.5
2018-12-24T05:00:03.068Z,99.4
2018-12-24T05:01:02.883Z,99.4
2018-12-24T05:02:03.758Z,97.5
2018-12-24T05:03:03.708Z,98.4
2018-12-24T05:04:03.217Z,97.5
2018-12-24T05:05:04.102Z,97.5
2018-12-24T05:06:03.492Z,97
2018-12-24T05:07:03.502Z,95.9
2018-12-24T05:08:03.559Z,97.3
2018-12-24T05:09:02.870Z,96.1
2018-12-24T05:10:03.566Z,95.9
2018-12-24T05:11:02.935Z,96.8
2018-12-24T05:12:03.380Z,96.8
2018-12-24T05:13:02.967Z,95.9
2018-12-24T05:14:03.478Z,95.4
2018-12-24T05:15:03.106Z,95.9
2018-12-24T05:16:03.606Z,94.9
2018-12-24T05:17:03.521Z,95.6
2018-12-24T05:18:03.022Z,93.8
2018-12-24T05:19:03.306Z,95.9
2018-12-24T05:20:03.321Z,95.6
2018-12-24T05:21:03.451Z,95.2
2018-12-24T05:22:03.233Z,96.1
2018-12-24T05:23:03.509Z,96.1
2018-12-24T05:24:03.492Z,96.1
2018-12-24T05:25:03.592Z,94.9
2018-12-24T05:26:03.481Z,93.5
2018-12-24T05:27:03.507Z,94.9
2018-12-24T05:28:03.243Z,94.2
2018-12-24T05:29:03.226Z,94.9
2018-12-24T05:30:03.593Z,95.4
2018-12-24T05:31:03.599Z,95.2
2018-12-24T05:32:03.697Z,93.1
2018-12-24T05:33:03.635Z,92.8
2018-12-24T05:34:03.367Z,94.2
2018-12-24T05:35:03.851Z,92.1
2018-12-24T05:36:03.827Z,93.3
2018-12-24T05:37:03.691Z,92.6
2018-12-24T05:38:03.004Z,92.6
2018-12-24T05:39:03.524Z,92.4
2018-12-24T05:40:03.071Z,93.5
2018-12-24T05:41:02.873Z,92.1
2018-12-24T05:42:04.060Z,92.1
2018-12-24T05:43:03.684Z,92.6
2018-12-24T05:44:03.198Z,92.4
2018-12-24T05:45:03.679Z,92.8
2018-12-24T05:46:03.627Z,94
2018-12-24T05:47:03.679Z,93.3
2018-12-24T05:48:03.809Z,93.8
2018-12-24T05:49:03.458Z,94.7
2018-12-24T05:50:03.218Z,94
2018-12-24T05:51:02.834Z,94.5
2018-12-24T05:52:02.980Z,95.4
2018-12-24T05:53:08.395Z,94.7
2018-12-24T05:54:03.781Z,96.1
2018-12-24T05:55:03.210Z,95.4
2018-12-24T05:56:03.085Z,95.6
2018-12-24T05:57:03.065Z,97.5
2018-12-24T05:58:03.876Z,94.9
2018-12-24T05:59:03.163Z,96.8
2018-12-24T06:00:03.353Z,97.3
2018-12-24T06:01:02.771Z,95.6
2018-12-24T06:02:03.062Z,96.8
2018-12-24T06:03:03.705Z,95.6
2018-12-24T06:04:03.310Z,95.2
2018-12-24T06:05:02.918Z,95.2
2018-12-24T06:06:03.149Z,95.9
2018-12-24T06:07:03.268Z,95.2
2018-12-24T06:08:03.057Z,97.5
2018-12-24T06:09:03.574Z,96.8
2018-12-24T06:10:02.977Z,96.6
2018-12-24T06:11:03.666Z,97
2018-12-24T06:12:02.884Z,96.3
2018-12-24T06:13:02.851Z,96.6
2018-12-24T06:14:03.350Z,96.6
2018-12-24T06:15:03.043Z,96.1
2018-12-24T06:16:03.352Z,97.5
2018-12-24T06:17:02.968Z,99.6
2018-12-24T06:18:02.776Z,97.5
2018-12-24T06:19:02.807Z,98
2018-12-24T06:20:03.794Z,97.5
2018-12-24T06:21:03.682Z,95.9
2018-12-24T06:22:03.529Z,96.6
2018-12-24T06:23:03.388Z,95.4
2018-12-24T06:24:03.680Z,95.6
2018-12-24T06:25:03.942Z,97.3
2018-12-24T06:26:03.074Z,95.9
2018-12-24T06:27:03.049Z,95.9
2018-12-24T06:28:03.098Z,96.1
2018-12-24T06:29:03.770Z,95.2
2018-12-24T06:30:03.357Z,94.7
2018-12-24T06:31:02.992Z,94.2
2018-12-24T06:32:02.880Z,94.5
2018-12-24T06:33:03.628Z,94.7
2018-12-24T06:34:03.404Z,94.2
2018-12-24T06:35:02.890Z,93.8
2018-12-24T06:36:03.596Z,92.4
2018-12-24T06:37:03.421Z,92.8
2018-12-24T06:38:02.767Z,91.9
2018-12-24T06:39:03.400Z,91.9
2018-12-24T06:40:03.241Z,90
2018-12-24T06:41:03.935Z,91.4
2018-12-24T06:42:03.544Z,90.5
2018-12-24T06:43:03.048Z,91.9
2018-12-24T06:44:07.309Z,91.2
2018-12-24T06:45:03.129Z,90.5
2018-12-24T06:46:03.689Z,90.5
2018-12-24T06:47:03.217Z,91
2018-12-24T06:48:03.481Z,91.4
2018-12-24T06:49:02.825Z,90.5
2018-12-24T06:50:03.310Z,90
2018-12-24T06:51:03.953Z,89.1
2018-12-24T06:52:03.443Z,90.5
2018-12-24T06:53:02.992Z,87.7
2018-12-24T06:54:03.726Z,91
2018-12-24T06:55:03.542Z,88.6
2018-12-24T06:56:03.740Z,90.5
2018-12-24T06:57:03.845Z,89.8
2018-12-24T06:58:03.389Z,89.3
2018-12-24T06:59:05.603Z,90.5
2018-12-24T07:00:03.953Z,90.5
2018-12-24T07:01:03.401Z,91
2018-12-24T07:02:03.572Z,90.7
2018-12-24T07:03:03.431Z,92.1
2018-12-24T07:04:03.311Z,91.2
2018-12-24T07:05:03.225Z,93.1
2018-12-24T07:06:03.062Z,93.8
2018-12-24T07:07:03.122Z,94
2018-12-24T07:08:02.909Z,94.5
2018-12-24T07:09:03.559Z,94.5
2018-12-24T07:10:03.126Z,92.8
2018-12-24T07:11:03.778Z,94.5
2018-12-24T07:12:02.927Z,93.8
2018-12-24T07:13:03.566Z,94.7
2018-12-24T07:14:03.707Z,93.1
2018-12-24T07:15:03.069Z,92.6
2018-12-24T07:16:03.206Z,92.6
2018-12-24T07:17:03.515Z,91.2
2018-12-24T07:18:03.208Z,91
2018-12-24T07:19:02.934Z,90.5
2018-12-24T07:20:03.665Z,91.7
2018-12-24T07:21:03.467Z,90.7
2018-12-24T07:22:03.346Z,92.1
2018-12-24T07:23:03.284Z,90.7
2018-12-24T07:24:03.305Z,90.5
2018-12-24T07:25:03.899Z,92.1
2018-12-24T07:26:03.197Z,90
2018-12-24T07:27:03.460Z,91.7
2018-12-24T07:28:03.717Z,90.7
2018-12-24T07:29:03.529Z,90.7
2018-12-24T07:30:03.039Z,91.2
2018-12-24T07:31:03.357Z,91.4
2018-12-24T07:32:03.176Z,92.4
2018-12-24T07:33:03.087Z,93.3
2018-12-24T07:34:03.169Z,92.4
2018-12-24T07:35:03.181Z,92.6
2018-12-24T07:36:03.732Z,93.1
2018-12-24T07:37:03.417Z,94
2018-12-24T07:38:03.557Z,94
2018-12-24T07:39:03.239Z,95.4
2018-12-24T07:40:03.508Z,96.1
2018-12-24T07:41:03.125Z,96.1
2018-12-24T07:42:02.936Z,97.7
2018-12-24T07:43:03.583Z,96.8
2018-12-24T07:44:02.935Z,97.3
2018-12-24T07:45:03.201Z,99.8
2018-12-24T07:46:03.539Z,98.2
2018-12-24T07:47:03.248Z,98.7
2018-12-24T07:48:03.642Z,97.7
2018-12-24T07:49:02.971Z,97.3
2018-12-24T07:50:03.385Z,96.8
2018-12-24T07:51:03.116Z,98
2018-12-24T07:52:03.907Z,98.2
2018-12-24T07:53:03.228Z,97.3
2018-12-24T07:54:03.527Z,98.2
2018-12-24T07:55:03.638Z,97.5
2018-12-24T07:56:03.189Z,97.3
2018-12-24T07:57:02.887Z,96.1
2018-12-24T07:58:03.602Z,98.4
2018-12-24T07:59:03.056Z,98.7
2018-12-24T08:00:03.692Z,96.3
2018-12-24T08:01:03.081Z,97.5
2018-12-24T08:02:03.300Z,95.6
2018-12-24T08:03:03.820Z,95.6
2018-12-24T08:04:03.390Z,94.7
2018-12-24T08:05:03.714Z,94
2018-12-24T08:06:03.108Z,94.5
2018-12-24T08:07:03.689Z,93.5
2018-12-24T08:08:03.896Z,93.1
2018-12-24T08:09:03.148Z,92.4
2018-12-24T08:10:03.535Z,90
2018-12-24T08:11:03.729Z,89.6
2018-12-24T08:12:03.567Z,91
2018-12-24T08:13:03.317Z,89.8
2018-12-24T08:14:03.053Z,90.7
2018-12-24T08:15:03.174Z,91
2018-12-24T08:16:03.047Z,91.4
2018-12-24T08:17:03.336Z,90.3
2018-12-24T08:18:03.488Z,90.5
2018-12-24T08:19:03.082Z,90.5
2018-12-24T08:20:03.976Z,91.7
2018-12-24T08:21:04.175Z,91.4
2018-12-24T08:22:03.388Z,92.1
2018-12-24T08:23:02.857Z,91.9
2018-12-24T08:24:03.650Z,91.9
2018-12-24T08:25:03.711Z,93.8
2018-12-24T08:26:02.888Z,92.1
2018-12-24T08:27:02.944Z,94
2018-12-24T08:28:03.013Z,92.1
2018-12-24T08:29:03.426Z,93.8
2018-12-24T08:30:04.757Z,94.2
2018-12-24T08:31:05.894Z,93.1
2018-12-24T08:32:04.624Z,92.6
2018-12-24T08:33:03.050Z,92.6
2018-12-24T08:34:03.549Z,92.4
2018-12-24T08:35:03.116Z,92.6
2018-12-24T08:36:03.125Z,92.1
2018-12-24T08:37:03.668Z,91.9
2018-12-24T08:38:02.993Z,90.5
2018-12-24T08:39:03.284Z,89.6
2018-12-24T08:40:04.763Z,90.3
2018-12-24T08:41:03.704Z,88.9
2018-12-24T08:42:05.572Z,90
2018-12-24T08:43:03.831Z,87.7
2018-12-24T08:44:03.606Z,86.3
2018-12-24T08:45:03.957Z,87.2
2018-12-24T08:46:03.808Z,85.8
2018-12-24T08:47:02.779Z,86.5
2018-12-24T08:48:03.248Z,87.2
2018-12-24T08:49:03.215Z,87.5
2018-12-24T08:50:04.647Z,86.5
2018-12-24T08:51:03.350Z,86.3
2018-12-24T08:52:03.432Z,88.2
2018-12-24T08:53:03.653Z,88.9
2018-12-24T08:54:03.380Z,88.6
2018-12-24T08:55:03.081Z,90.5
2018-12-24T08:56:03.467Z,87.9
2018-12-24T08:57:03.199Z,86.5
2018-12-24T08:58:03.596Z,88.9
2018-12-24T08:59:03.371Z,86.3
2018-12-24T09:00:05.558Z,86.8
2018-12-24T09:01:03.485Z,87
2018-12-24T09:02:03.754Z,87
2018-12-24T09:03:02.987Z,87.7
2018-12-24T09:04:02.908Z,87.9
2018-12-24T09:05:03.992Z,86.5
2018-12-24T09:06:03.261Z,86.3
2018-12-24T09:07:03.522Z,86.3
2018-12-24T09:08:03.169Z,87
2018-12-24T09:09:03.166Z,87.7
2018-12-24T09:10:04.299Z,88.4
2018-12-24T09:11:03.493Z,87.5
2018-12-24T09:12:05.595Z,88.2
2018-12-24T09:13:02.744Z,89.1
2018-12-24T09:14:03.012Z,88.9
2018-12-24T09:15:03.449Z,89.8
2018-12-24T09:16:02.992Z,88.9
2018-12-24T09:17:03.735Z,89.8
2018-12-24T09:18:03.638Z,88.4
2018-12-24T09:19:03.602Z,90
2018-12-24T09:20:04.449Z,88.6
2018-12-24T09:21:03.289Z,89.8
2018-12-24T09:22:04.290Z,89.6
2018-12-24T09:23:02.928Z,87.9
2018-12-24T09:24:03.359Z,90
2018-12-24T09:25:03.869Z,88.2
2018-12-24T09:26:03.298Z,89.8
2018-12-24T09:27:03.595Z,89.3
2018-12-24T09:28:03.309Z,88.6
2018-12-24T09:29:03.825Z,89.3
2018-12-24T09:30:03.643Z,88.9
2018-12-24T09:31:03.109Z,88.9
2018-12-24T09:32:03.599Z,89.3
2018-12-24T09:33:03.607Z,88.2
2018-12-24T09:34:03.089Z,91.4
2018-12-24T09:35:03.604Z,90.5
2018-12-24T09:36:03.694Z,89.8
2018-12-24T09:37:03.115Z,92.1
2018-12-24T09:38:03.825Z,91.7
2018-12-24T09:39:03.502Z,90.7
2018-12-24T09:40:03.372Z,91
2018-12-24T09:41:03.914Z,93.3
2018-12-24T09:42:03.528Z,92.4
2018-12-24T09:43:03.084Z,94.2
2018-12-24T09:44:03.715Z,93.1
2018-12-24T09:45:03.319Z,94.5
2018-12-24T09:46:03.839Z,94.5
2018-12-24T09:47:03.760Z,95.6
2018-12-24T09:48:04.247Z,95.9
2018-12-24T09:49:03.372Z,96.8
2018-12-24T09:50:03.930Z,94.5
2018-12-24T09:51:03.734Z,94.9
2018-12-24T09:52:03.504Z,94.7
2018-12-24T09:53:03.049Z,94.7
2018-12-24T09:54:03.244Z,94.2
2018-12-24T09:55:03.409Z,96.8
2018-12-24T09:56:03.726Z,95.6
2018-12-24T09:57:02.923Z,95.9
2018-12-24T09:58:03.304Z,97.3
2018-12-24T09:59:02.885Z,95.9
2018-12-24T10:00:02.963Z,97.3
2018-12-24T10:01:03.353Z,98
2018-12-24T10:02:03.399Z,97.3
2018-12-24T10:03:03.389Z,99.6
2018-12-24T10:04:03.555Z,100.1
2018-12-24T10:05:03.528Z,100.8
2018-12-24T10:06:03.232Z,100.1
2018-12-24T10:07:03.201Z,102.9
2018-12-24T10:08:03.016Z,102.2
2018-12-24T10:09:03.215Z,103.3
2018-12-24T10:10:03.387Z,104
2018-12-24T10:11:03.386Z,103.6
2018-12-24T10:12:04.111Z,103.6
2018-12-24T10:13:03.576Z,105.7
2018-12-24T10:14:02.817Z,103.1
2018-12-24T10:15:08.475Z,104.5
2018-12-24T10:16:03.330Z,102.6
2018-12-24T10:17:03.189Z,102.6
2018-12-24T10:18:03.607Z,103.3
2018-12-24T10:19:03.025Z,103.8
2018-12-24T10:20:03.466Z,102.6
2018-12-24T10:21:03.612Z,104.5
2018-12-24T10:22:03.583Z,103.1
2018-12-24T10:23:03.378Z,103.8
2018-12-24T10:24:03.777Z,104
2018-12-24T10:25:03.366Z,103.1
2018-12-24T10:26:03.685Z,104.5
2018-12-24T10:27:03.555Z,104.3
2018-12-24T10:28:03.794Z,102.2
2018-12-24T10:29:03.273Z,105.7
2018-12-24T10:30:03.839Z,105.4
2018-12-24T10:31:03.086Z,106.6
2018-12-24T10:32:03.970Z,105.9
2018-12-24T10:33:03.028Z,105.9
2018-12-24T10:34:03.886Z,106.4
2018-12-24T10:35:04.030Z,105.7
2018-12-24T10:36:03.042Z,105
2018-12-24T10:37:03.807Z,103.6
2018-12-24T10:38:03.071Z,105.2
2018-12-24T10:39:03.528Z,104.3
2018-12-24T10:40:03.842Z,105.7
2018-12-24T10:41:03.469Z,104.7
2018-12-24T10:42:02.887Z,105.7
2018-12-24T10:43:03.634Z,104.5
2018-12-24T10:44:03.601Z,104.3
2018-12-24T10:45:03.974Z,104
2018-12-24T10:46:03.578Z,105
2018-12-24T10:47:02.825Z,105.7
2018-12-24T10:48:02.826Z,105.2
2018-12-24T10:49:03.349Z,105.2
2018-12-24T10:50:03.871Z,105
2018-12-24T10:51:03.482Z,106.1
2018-12-24T10:52:03.575Z,105.4
2018-12-24T10:53:02.980Z,105.9
2018-12-24T10:54:03.605Z,104
2018-12-24T10:55:03.493Z,103.8
2018-12-24T10:56:03.389Z,102.6
2018-12-24T10:57:03.335Z,101.5
2018-12-24T10:58:03.451Z,101.5
2018-12-24T10:59:02.989Z,102.2
2018-12-24T11:00:03.292Z,102.6
2018-12-24T11:01:03.687Z,101.5
2018-12-24T11:02:03.620Z,101.2
2018-12-24T11:03:03.879Z,102.2
2018-12-24T11:04:03.800Z,100.3
2018-12-24T11:05:03.350Z,100.5
2018-12-24T11:06:03.172Z,99.4
2018-12-24T11:07:03.096Z,99.8
2018-12-24T11:08:03.491Z,100.3
2018-12-24T11:09:03.494Z,100.3
2018-12-24T11:10:03.382Z,101.2
2018-12-24T11:11:03.064Z,99.6
2018-12-24T11:12:03.153Z,100.5
2018-12-24T11:13:03.411Z,99.8
2018-12-24T11:14:03.431Z,100.3
2018-12-24T11:15:03.851Z,99.8
2018-12-24T11:16:03.570Z,99.8
2018-12-24T11:17:03.413Z,99.6
2018-12-24T11:18:03.586Z,102.4
2018-12-24T11:19:03.295Z,99.8
2018-12-24T11:20:03.867Z,101.2
2018-12-24T11:21:03.125Z,101.7
2018-12-24T11:22:03.524Z,101.2
2018-12-24T11:23:03.108Z,101.2
2018-12-24T11:24:03.025Z,98.7
2018-12-24T11:25:03.115Z,97.7
2018-12-24T11:26:03.821Z,96.3
2018-12-24T11:27:03.665Z,95.2
2018-12-24T11:28:03.576Z,94.9
2018-12-24T11:29:03.394Z,95.2
2018-12-24T11:30:03.220Z,94.7
2018-12-24T11:31:03.654Z,94
2018-12-24T11:32:03.696Z,93.1
2018-12-24T11:33:03.319Z,91.7
2018-12-24T11:34:03.477Z,92.8
2018-12-24T11:35:03.356Z,91.7
2018-12-24T11:36:03.227Z,93.1
2018-12-24T11:37:02.990Z,91.7
2018-12-24T11:38:03.527Z,92.4
2018-12-24T11:39:03.899Z,92.1
2018-12-24T11:40:03.687Z,93.8
2018-12-24T11:41:03.710Z,91.4
2018-12-24T11:42:03.151Z,91
2018-12-24T11:43:03.009Z,92.8
2018-12-24T11:44:03.067Z,91.4
2018-12-24T11:45:03.774Z,93.3
2018-12-24T11:46:03.729Z,92.8
2018-12-24T11:47:03.558Z,92.6
2018-12-24T11:48:03.162Z,91.9
2018-12-24T11:49:02.946Z,92.4
2018-12-24T11:50:03.903Z,91.7
2018-12-24T11:51:03.311Z,92.8
2018-12-24T11:52:03.706Z,93.8
2018-12-24T11:53:03.232Z,95.9
2018-12-24T11:54:02.761Z,94.7
2018-12-24T11:55:03.919Z,96.8
2018-12-24T11:56:03.170Z,98
2018-12-24T11:57:03.667Z,100.1
2018-12-24T11:58:03.408Z,99.4
2018-12-24T11:59:03.791Z,101
2018-12-24T12:00:03.515Z,100.8
2018-12-24T12:01:03.051Z,101.2
2018-12-24T12:02:10.502Z,100.3
2018-12-24T12:03:03.932Z,102.2
2018-12-24T12:04:03.011Z,103.3
2018-12-24T12:05:03.605Z,101.7
2018-12-24T12:06:03.589Z,102.9
2018-12-24T12:07:03.653Z,102.9
2018-12-24T12:08:03.503Z,102.2
2018-12-24T12:09:03.176Z,102.2
2018-12-24T12:10:03.607Z,101.5
2018-12-24T12:11:03.656Z,100.8
2018-12-24T12:12:03.194Z,101.7
2018-12-24T12:13:03.253Z,101
2018-12-24T12:14:03.569Z,101.7
2018-12-24T12:15:03.705Z,101
2018-12-24T12:16:03.266Z,101.2
2018-12-24T12:17:03.586Z,101
2018-12-24T12:18:03.813Z,101.7
2018-12-24T12:19:03.520Z,99.1
2018-12-24T12:20:03.753Z,99.8
2018-12-24T12:21:03.700Z,98.7
2018-12-24T12:22:03.009Z,99.1
2018-12-24T12:23:03.143Z,99.1
2018-12-24T12:24:03.750Z,99.4
2018-12-24T12:25:03.741Z,100.1
2018-12-24T12:26:03.859Z,100.1
2018-12-24T12:27:03.267Z,101.2
2018-12-24T12:28:03.570Z,101
2018-12-24T12:29:03.006Z,100.8
2018-12-24T12:30:03.638Z,100.3
2018-12-24T12:31:03.229Z,100.8
2018-12-24T12:32:03.707Z,99.8
2018-12-24T12:33:02.882Z,98.9
2018-12-24T12:34:03.699Z,100.5
2018-12-24T12:35:03.107Z,99.4
2018-12-24T12:36:03.320Z,101.5
2018-12-24T12:37:03.651Z,102.4
2018-12-24T12:38:03.049Z,101.7
2018-12-24T12:39:03.703Z,101.7
2018-12-24T12:40:03.070Z,102.2
2018-12-24T12:41:03.780Z,101.5
2018-12-24T12:42:03.679Z,100.5
2018-12-24T12:43:03.694Z,101.9
2018-12-24T12:44:03.511Z,99.6
2018-12-24T12:45:03.070Z,101.5
2018-12-24T12:46:04.055Z,98.7
2018-12-24T12:47:03.599Z,101.7
2018-12-24T12:48:03.622Z,100.1
2018-12-24T12:49:03.299Z,101.9
2018-12-24T12:50:03.833Z,100.3
2018-12-24T12:51:03.130Z,100.1
2018-12-24T12:52:03.778Z,99.4
2018-12-24T12:53:03.693Z,99.4
2018-12-24T12:54:03.059Z,97.7
2018-12-24T12:55:03.818Z,96.8
2018-12-24T12:56:04.198Z,96.6
2018-12-24T12:57:03.865Z,96.3
2018-12-24T12:58:03.526Z,94.5
2018-12-24T12:59:03.377Z,94
2018-12-24T13:00:03.501Z,93.1
2018-12-24T13:01:03.091Z,92.8
2018-12-24T13:02:03.336Z,91.2
2018-12-24T13:03:04.389Z,92.4
2018-12-24T13:04:03.905Z,91.7
2018-12-24T13:05:03.206Z,90.7
2018-12-24T13:06:03.877Z,90.3
2018-12-24T13:07:03.993Z,89.8
2018-12-24T13:08:03.073Z,89.8
2018-12-24T13:09:03.265Z,88.4
2018-12-24T13:10:04.853Z,90.7
2018-12-24T13:11:03.139Z,87.5
2018-12-24T13:12:03.553Z,89.6
2018-12-24T13:13:02.906Z,87.7
2018-12-24T13:14:03.079Z,89.1
2018-12-24T13:15:02.883Z,88.9
2018-12-24T13:16:03.112Z,90.5